Snow/Ice From: 23-10-2018 22:46 Until: 24-10-2018 08:00 warning for: Snow/Ice Level: Yellow info button
suomi:
Liikennesää: Ajokeli on huono tienpintojen jäätymisen vuoksi.

svenska:
Trafikvädret: Väglaget är dåligt p.g.a. tillfrysning av vägytor.

english:
Traffic weather warning: Bad road conditions are expected because of ice-covered roads. 


Thunder radar more information blitzortung!


Löydät sääaseman tiedot myös:

European Weather Network

Finland Weather Exchange

Weather Underground

AWEKAS



Weather Underground säähistoriasivu

Päivittäin yhteenveto Lokakuu 7, 2017 Yksiköt:  Metriset    Englantilaiset   Molemmat
« Edellinen Päivä
Seuraava Päivä »
Päivittäin Viikoittain Kuukausittain Vuosittain Mukautettu
  Korkea: Matala: Keskiarvo:
Lämpötila: -17.8 °C 2.9 °C 4.9 °C
Kastepiste: -17.8 °C 2.5 °C 4.6 °C
Kosteus: Humidity % 97 % 97 %
Tuulen nopeus: 0 km/h 0 km/h 0 km/h
Tuulenpuuska: 0 km/h - -
Tuuli:- - North
Ilmanpaine: 0 hPa 995.8 hPa -
Sade: 0.25 mm    
Historical Graphs
 
 
Taulukkotiedot Lokakuu 7, 2017
Aika Lämpötila Kastepiste Ilmanpaine Tuuli Tuulen nopeus Tuulenpuuska Kosteus Sademäärä (tunneittain)
-17.8 °C -17.8 °C 0 hPa Calm     Humidity % 0 mm
00:00 4.1 °C 3.7 °C 997.2 hPa Calm     97 % 0 mm
00:15 4.2 °C 3.8 °C 997.2 hPa Calm     97 % 0 mm
00:30 4.4 °C 4.2 °C 997.2 hPa Calm     98 % 0 mm
00:45 4.7 °C 4.4 °C 997.2 hPa Calm     98 % 0 mm
01:00 4.6 °C 4.2 °C 997.2 hPa Calm     97 % 0 mm
01:15 4.6 °C 4.2 °C 996.8 hPa Calm     97 % 0 mm
01:30 4.7 °C 4.4 °C 996.8 hPa Calm     98 % 0 mm
01:45 4.7 °C 4.4 °C 996.8 hPa Calm     98 % 0 mm
02:00 4.7 °C 4.4 °C 996.8 hPa Calm     98 % 0 mm
02:15 4.8 °C 4.5 °C 996.8 hPa Calm     98 % 0 mm
02:45 4.8 °C 4.5 °C 996.8 hPa Calm     98 % 0 mm
03:00 4.7 °C 4.4 °C 996.8 hPa Calm     98 % 0 mm
03:15 4.7 °C 4.4 °C 996.8 hPa Calm     98 % 0 mm
03:30 4.7 °C 4.4 °C 996.8 hPa Calm     98 % 0 mm
03:45 4.8 °C 4.5 °C 996.8 hPa Calm     98 % 0 mm
04:00 4.8 °C 4.5 °C 996.8 hPa Calm     98 % 0 mm
04:30 4.7 °C 4.4 °C 996.8 hPa Calm     98 % 0 mm
04:45 4.6 °C 4.3 °C 996.8 hPa Calm     98 % 0 mm
05:00 4.4 °C 4.2 °C 996.8 hPa Calm     98 % 0 mm
05:15 4.3 °C 4 °C 996.5 hPa Calm     98 % 0 mm
05:30 4.4 °C 4.1 °C 996.5 hPa Calm     98 % 0 mm
05:45 4.2 °C 3.9 °C 996.5 hPa Calm     98 % 0 mm
06:00 4.1 °C 3.8 °C 996.5 hPa Calm     98 % 0 mm
06:15 4 °C 3.7 °C 996.5 hPa Calm     98 % 0 mm
06:30 3.8 °C 3.5 °C 996.5 hPa Calm     98 % 0 mm
06:45 3.7 °C 3.2 °C 996.2 hPa Calm     97 % 0 mm
07:00 3.4 °C 3.1 °C 996.2 hPa Calm     98 % 0 mm
07:15 3.1 °C 2.7 °C 996.2 hPa Calm     97 % 0 mm
07:30 2.9 °C 2.5 °C 996.2 hPa Calm     97 % 0 mm
07:45 2.9 °C 2.7 °C 996.2 hPa Calm     98 % 0 mm
08:00 2.9 °C 2.7 °C 996.2 hPa Calm     98 % 0 mm
08:15 3.1 °C 2.8 °C 996.2 hPa Calm     98 % 0 mm
08:30 3.4 °C 3.2 °C 996.2 hPa Calm     98 % 0 mm
08:45 3.6 °C 3.3 °C 996.2 hPa Calm     98 % 0 mm
09:00 3.7 °C 3.4 °C 996.2 hPa Calm     98 % 0 mm
09:15 3.9 °C 3.6 °C 996.2 hPa Calm     98 % 0 mm
09:30 4.1 °C 3.8 °C 996.2 hPa Calm     98 % 0 mm
09:45 4.3 °C 4 °C 996.2 hPa Calm     98 % 0 mm
10:00 4.4 °C 4.2 °C 996.2 hPa Calm     98 % 0 mm
10:15 4.6 °C 4.3 °C 996.2 hPa Calm     98 % 0 mm
10:30 4.8 °C 4.5 °C 996.2 hPa Calm     98 % 0 mm
10:45 5.1 °C 4.8 °C 996.2 hPa Calm     98 % 0 mm
11:00 5.3 °C 5 °C 996.2 hPa Calm     98 % 0 mm
11:15 5.6 °C 5.3 °C 996.2 hPa Calm     98 % 0 mm
11:30 5.8 °C 5.5 °C 996.2 hPa Calm     98 % 0 mm
11:45 6.1 °C 5.8 °C 996.2 hPa Calm     98 % 0 mm
12:00 6.5 °C 6.4 °C 996.2 hPa Calm     99 % 0 mm
12:15 6.7 °C 6.4 °C 996.2 hPa Calm     98 % 0 mm
12:30 6.7 °C 6.4 °C 996.2 hPa Calm     98 % 0 mm
12:45 6.9 °C 6.8 °C 996.2 hPa Calm     99 % 0 mm
13:00 7.1 °C 6.8 °C 996.2 hPa Calm     98 % 0 mm
13:15 7.3 °C 7.2 °C 996.2 hPa Calm     99 % 0 mm
13:30 7.3 °C 7.1 °C 996.2 hPa Calm     99 % 0 mm
13:45 7.3 °C 7.1 °C 996.2 hPa Calm     99 % 0 mm
14:00 7.3 °C 7 °C 996.2 hPa Calm     98 % 0 mm
14:15 7.2 °C 6.9 °C 996.2 hPa Calm     98 % 0 mm
14:30 7.2 °C 6.9 °C 996.2 hPa Calm     98 % 0 mm
14:45 7.3 °C 7 °C 995.8 hPa Calm     98 % 0 mm
15:00 7.5 °C 7.2 °C 996.2 hPa Calm     98 % 0 mm
15:15 7.5 °C 7.2 °C 995.8 hPa Calm     98 % 0 mm
15:30 7.6 °C 7.3 °C 995.8 hPa Calm     98 % 0 mm
15:45 7.4 °C 7.1 °C 995.8 hPa Calm     98 % 0 mm
16:00 7.3 °C 7 °C 995.8 hPa Calm     98 % 0.25 mm
16:15 6.6 °C 6.1 °C 995.8 hPa Calm     97 % 0.25 mm
16:30 6.2 °C 5.7 °C 995.8 hPa Calm     97 % 0.25 mm
16:45 6.1 °C 5.6 °C 996.2 hPa Calm     97 % 0.25 mm
17:00 6.2 °C 5.9 °C 996.2 hPa Calm     98 % 0 mm
17:15 6.3 °C 6 °C 996.2 hPa Calm     98 % 0 mm
17:30 6.4 °C 6.2 °C 996.2 hPa Calm     98 % 0 mm
17:45 6.5 °C 6.2 °C 996.2 hPa Calm     98 % 0 mm
18:00 6.3 °C 6 °C 996.5 hPa Calm     98 % 0 mm
18:15 6.1 °C 5.6 °C 996.5 hPa Calm     97 % 0 mm
18:30 5.9 °C 5.4 °C 996.5 hPa Calm     97 % 0 mm
18:45 5.7 °C 5.3 °C 996.5 hPa Calm     97 % 0 mm
19:00 5.6 °C 5.1 °C 996.5 hPa Calm     97 % 0 mm
19:15 5.4 °C 5 °C 996.8 hPa Calm     97 % 0 mm
19:30 5.3 °C 4.9 °C 996.8 hPa Calm     97 % 0 mm
19:45 5.2 °C 4.8 °C 996.8 hPa Calm     97 % 0 mm
20:00 5.2 °C 4.7 °C 996.8 hPa Calm     97 % 0 mm
20:15 5.1 °C 4.7 °C 997.2 hPa Calm     97 % 0 mm
20:30 5.1 °C 4.6 °C 997.2 hPa Calm     97 % 0 mm
20:45 5 °C 4.6 °C 997.5 hPa Calm     97 % 0 mm
21:00 4.9 °C 4.5 °C 997.5 hPa Calm     97 % 0 mm
21:15 4.8 °C 4.4 °C 997.5 hPa Calm     97 % 0 mm
21:30 4.8 °C 4.3 °C 997.5 hPa Calm     97 % 0 mm
21:45 4.7 °C 4.3 °C 997.5 hPa Calm     97 % 0 mm
22:00 4.7 °C 4.2 °C 997.5 hPa Calm     97 % 0 mm
22:15 4.7 °C 4.2 °C 997.5 hPa Calm     97 % 0 mm
22:45 4.7 °C 4.2 °C 997.9 hPa Calm     97 % 0 mm
23:00 4.7 °C 4.3 °C 997.9 hPa Calm     97 % 0 mm
23:15 4.6 °C 4.2 °C 997.9 hPa Calm     97 % 0 mm
23:30 4.6 °C 4.1 °C 998.2 hPa Calm     97 % 0 mm
23:45 4.5 °C 4.1 °C 998.2 hPa Calm     97 % 0 mm
Esan sääasema
Terveisin Weather Underground - 2.75 mb

Alkuperäinen skripti  Jim McMurry - jmcmurry@mwt.net Sovitettu myös templatelle  Wim van der Kuil - Leuven-Template.eu

Laitteet joita käytämme:

Sääasema
Davis VP2

Sääasemaohjelma
Cumulus

Sääaseman tietokone
Asus EeePC

Palveluntarjoaja
Suncomet

Davis VP2

Cumulus

Asus EeePC

Suncomet